Time;durP1;ratioP1;P1;durP2;ratioP2;P2;SDS_P1;SDS_P2;PMS_P1;PMS_P2;Temp;Humidity;BMP_temperature;BMP_pressure;BME280_temperature;BME280_humidity;BME280_pressure;Samples;Min_cycle;Max_cycle;Signal;HPM_P1;HPM_P2
2021/05/13 00:01:15;;;;;;;7.93;2.90;;;10.40;99.90;;;;;;5036601;28;20132;-76
2021/05/13 00:03:41;;;;;;;10.20;3.15;;;10.50;99.90;;;;;;5032083;28;20087;-74
2021/05/13 00:06:07;;;;;;;8.82;2.63;;;10.40;99.90;;;;;;5050004;28;20426;-76
2021/05/13 00:08:32;;;;;;;9.82;2.75;;;10.40;99.90;;;;;;5034414;28;20056;-77
2021/05/13 00:11:05;;;;;;;9.88;3.17;;;10.30;99.90;;;;;;5040181;28;20094;-76
2021/05/13 00:13:36;;;;;;;9.80;3.45;;;10.30;99.90;;;;;;5050771;28;20024;-78
2021/05/13 00:16:03;;;;;;;9.02;3.53;;;10.30;99.90;;;;;;5050174;28;20040;-76
2021/05/13 00:18:31;;;;;;;7.93;3.58;;;10.30;99.90;;;;;;5046675;28;20551;-76
2021/05/13 00:20:57;;;;;;;9.70;3.30;;;10.20;99.90;;;;;;5051001;28;20116;-75
2021/05/13 00:23:24;;;;;;;10.50;3.88;;;10.20;99.90;;;;;;5035086;28;20025;-79
2021/05/13 00:25:51;;;;;;;9.27;3.38;;;10.20;99.90;;;;;;5031413;28;20061;-77
2021/05/13 00:28:23;;;;;;;11.18;3.60;;;11.50;99.90;;;;;;5049804;28;20029;-77
2021/05/13 00:30:49;;;;;;;9.57;3.45;;;10.10;99.90;;;;;;5054596;28;20091;-77
2021/05/13 00:33:15;;;;;;;8.63;3.67;;;10.00;99.90;;;;;;5049211;28;20029;-77
2021/05/13 00:35:41;;;;;;;12.63;3.95;;;10.00;99.90;;;;;;5038930;28;20124;-75
2021/05/13 00:38:07;;;;;;;11.45;4.07;;;10.00;99.90;;;;;;5032890;28;20453;-76
2021/05/13 00:40:33;;;;;;;12.00;3.92;;;10.00;99.90;;;;;;5035819;28;20028;-77
2021/05/13 00:43:00;;;;;;;9.80;3.95;;;9.90;99.90;;;;;;5048745;28;20076;-76
2021/05/13 00:45:26;;;;;;;8.93;3.38;;;9.90;99.90;;;;;;5032276;28;20094;-76
2021/05/13 00:50:23;;;;;;;7.60;3.08;;;9.80;99.90;;;;;;5051195;28;20063;-77
2021/05/13 00:52:50;;;;;;;7.80;3.10;;;9.90;99.90;;;;;;5029238;28;20035;-75
2021/05/13 00:55:17;;;;;;;6.88;2.90;;;10.90;99.90;;;;;;5018136;28;23102;-77
2021/05/13 00:57:47;;;;;;;8.18;2.78;;;9.80;99.90;;;;;;5030022;28;23826;-76
2021/05/13 01:02:58;;;;;;;8.45;2.88;;;9.80;99.90;;;;;;5048588;28;20048;-76
2021/05/13 01:05:24;;;;;;;9.15;2.90;;;9.80;99.90;;;;;;5051307;28;20029;-77
2021/05/13 01:07:53;;;;;;;9.57;3.22;;;9.80;99.90;;;;;;5054835;28;20482;-77
2021/05/13 01:10:18;;;;;;;8.32;3.25;;;9.80;99.90;;;;;;5047862;28;20029;-75
2021/05/13 01:12:47;;;;;;;7.93;3.17;;;9.80;99.90;;;;;;5045795;28;20039;-77
2021/05/13 01:15:32;;;;;;;7.00;3.20;;;9.80;99.90;;;;;;5045999;28;20029;-74
2021/05/13 01:20:30;;;;;;;10.57;3.47;;;9.80;99.90;;;;;;5043414;28;20039;-77
2021/05/13 01:22:56;;;;;;;15.20;4.07;;;9.80;99.90;;;;;;5029119;28;20931;-73
2021/05/13 01:25:23;;;;;;;12.20;4.47;;;9.80;99.90;;;;;;5028828;28;20029;-76
2021/05/13 01:27:49;;;;;;;9.15;3.72;;;9.80;99.90;;;;;;5032890;28;20154;-76
2021/05/13 01:30:17;;;;;;;7.45;3.30;;;9.80;99.90;;;;;;5030739;28;20032;-74
2021/05/13 01:32:43;;;;;;;8.35;3.70;;;9.70;99.90;;;;;;5051759;28;20119;-76
2021/05/13 01:35:10;;;;;;;9.18;3.63;;;9.70;99.90;;;;;;5029744;28;20072;-77
2021/05/13 01:37:36;;;;;;;9.32;3.95;;;9.70;99.90;;;;;;5057890;28;20058;-77
2021/05/13 01:40:03;;;;;;;11.23;4.28;;;9.70;99.90;;;;;;5026631;28;20029;-78
2021/05/13 01:42:29;;;;;;;8.82;3.58;;;9.70;99.90;;;;;;5052431;28;20028;-77
2021/05/13 01:44:55;;;;;;;9.07;4.03;;;11.30;99.90;;;;;;5039362;28;20925;-77
2021/05/13 01:47:20;;;;;;;9.18;3.80;;;9.70;99.90;;;;;;5030685;28;20514;-76
2021/05/13 01:49:46;;;;;;;9.18;3.95;;;9.60;99.90;;;;;;5031383;28;20048;-77
2021/05/13 01:52:12;;;;;;;11.35;4.10;;;9.60;99.90;;;;;;5049382;28;20025;-77
2021/05/13 01:54:38;;;;;;;9.32;4.10;;;9.50;99.90;;;;;;5042632;28;20542;-76
2021/05/13 01:57:05;;;;;;;8.40;3.92;;;9.50;99.90;;;;;;5039736;28;20025;-77
2021/05/13 01:59:31;;;;;;;9.48;4.40;;;9.50;99.90;;;;;;5032368;28;20108;-76
2021/05/13 02:01:58;;;;;;;8.38;3.50;;;9.50;99.90;;;;;;5032591;28;20108;-75
2021/05/13 02:04:24;;;;;;;8.98;3.55;;;9.50;99.90;;;;;;5029921;28;20396;-76
2021/05/13 02:06:50;;;;;;;9.00;3.55;;;9.50;99.90;;;;;;5029310;28;20030;-76
2021/05/13 02:09:15;;;;;;;8.15;3.53;;;9.50;99.90;;;;;;5026213;28;20447;-75
2021/05/13 02:11:41;;;;;;;6.78;3.80;;;9.50;99.90;;;;;;5053128;28;20053;-76
2021/05/13 02:14:07;;;;;;;10.65;4.05;;;9.50;99.90;;;;;;5047796;28;20029;-75
2021/05/13 02:16:32;;;;;;;6.07;3.20;;;10.40;99.90;;;;;;5039862;28;20039;-76
2021/05/13 02:19:00;;;;;;;8.93;3.60;;;9.50;99.90;;;;;;5020871;28;20021;-78
2021/05/13 02:21:26;;;;;;;9.95;3.65;;;9.50;99.90;;;;;;5025193;28;20039;-77
2021/05/13 02:23:53;;;;;;;9.00;4.00;;;9.50;99.90;;;;;;5047466;28;20025;-78
2021/05/13 02:26:20;;;;;;;11.68;4.22;;;9.50;99.90;;;;;;5028930;28;20607;-77
2021/05/13 02:28:47;;;;;;;10.00;4.03;;;9.40;99.90;;;;;;5047536;28;20026;-76
2021/05/13 02:31:14;;;;;;;7.80;3.72;;;9.50;99.90;;;;;;5027992;28;20036;-76
2021/05/13 02:33:40;;;;;;;8.88;3.72;;;9.40;99.90;;;;;;5025290;28;20044;-78
2021/05/13 02:36:08;;;;;;;9.20;3.88;;;9.30;99.90;;;;;;5029115;28;20104;-77
2021/05/13 02:38:33;;;;;;;9.90;4.13;;;9.40;99.90;;;;;;5049411;28;20392;-76
2021/05/13 02:41:01;;;;;;;9.70;3.88;;;9.30;99.90;;;;;;5042341;28;20680;-77
2021/05/13 02:43:27;;;;;;;9.32;4.43;;;9.40;99.90;;;;;;5044751;28;20037;-76
2021/05/13 02:45:52;;;;;;;10.38;4.35;;;9.40;99.90;;;;;;5054078;28;20121;-77
2021/05/13 02:48:18;;;;;;;10.73;4.47;;;9.30;99.90;;;;;;5028115;28;20052;-77
2021/05/13 02:50:44;;;;;;;12.65;4.90;;;9.30;99.90;;;;;;5025259;28;20451;-76
2021/05/13 02:53:12;;;;;;;10.40;5.00;;;9.50;99.90;;;;;;5020202;28;20028;-76
2021/05/13 02:55:37;;;;;;;8.10;4.60;;;9.40;99.90;;;;;;5044688;28;20021;-77
2021/05/13 02:58:04;;;;;;;9.80;4.30;;;9.40;99.90;;;;;;5029798;28;20024;-75
2021/05/13 03:00:38;;;;;;;11.25;4.40;;;9.50;99.90;;;;;;5029334;28;20045;-75
2021/05/13 03:03:04;;;;;;;10.35;4.57;;;9.50;99.90;;;;;;5048255;28;20452;-76
2021/05/13 03:05:30;;;;;;;13.15;4.25;;;9.40;99.90;;;;;;5047848;28;20055;-78
2021/05/13 03:08:00;;;;;;;9.85;4.25;;;9.50;99.90;;;;;;5047617;28;20090;-77
2021/05/13 03:12:58;;;;;;;10.75;4.97;;;9.40;99.90;;;;;;5047435;28;19920;-76
2021/05/13 03:15:23;;;;;;;12.45;5.47;;;9.40;99.90;;;;;;5043034;28;20025;-76
2021/05/13 03:17:51;;;;;;;12.27;5.22;;;8.00;99.90;;;;;;5064287;28;20501;-79
2021/05/13 03:20:19;;;;;;;12.13;5.72;;;9.40;99.90;;;;;;5046483;28;20021;-76
2021/05/13 03:22:48;;;;;;;10.55;5.50;;;9.40;99.90;;;;;;5046030;28;20653;-80
2021/05/13 03:25:14;;;;;;;12.00;4.70;;;9.40;99.90;;;;;;5039870;28;20040;-76
2021/05/13 03:27:52;;;;;;;7.72;3.80;;;9.40;99.90;;;;;;5021943;28;20029;-76
2021/05/13 03:30:19;;;;;;;7.90;3.50;;;9.40;99.90;;;;;;5032011;28;20040;-76
2021/05/13 03:32:45;;;;;;;8.50;4.00;;;9.50;99.90;;;;;;5049790;28;20040;-76
2021/05/13 03:35:12;;;;;;;9.57;4.30;;;9.50;99.90;;;;;;5025868;28;20033;-74
2021/05/13 03:37:38;;;;;;;9.00;4.35;;;9.50;99.90;;;;;;5036765;28;20029;-77
2021/05/13 03:40:04;;;;;;;8.55;4.43;;;9.40;99.90;;;;;;5030323;28;20566;-77
2021/05/13 03:42:30;;;;;;;9.80;4.70;;;9.40;99.90;;;;;;5038404;28;20064;-75
2021/05/13 03:44:55;;;;;;;9.00;4.22;;;9.40;99.90;;;;;;5033075;28;20065;-78
2021/05/13 03:47:23;;;;;;;8.75;4.55;;;9.40;99.90;;;;;;5040143;28;21365;-76
2021/05/13 03:49:50;;;;;;;9.90;4.40;;;9.40;99.90;;;;;;5045329;28;20055;-76
2021/05/13 03:52:18;;;;;;;11.38;4.40;;;9.50;99.90;;;;;;5053235;28;20123;-78
2021/05/13 03:54:43;;;;;;;9.52;4.90;;;9.50;99.90;;;;;;5033318;28;20123;-77
2021/05/13 03:57:09;;;;;;;11.25;5.43;;;9.50;99.90;;;;;;5045411;28;20116;-77
2021/05/13 03:59:38;;;;;;;12.82;4.90;;;9.40;99.90;;;;;;5025224;28;20028;-75
2021/05/13 04:02:10;;;;;;;9.00;4.72;;;9.40;99.90;;;;;;5039808;28;20025;-76
2021/05/13 04:04:37;;;;;;;10.25;5.15;;;9.40;99.90;;;;;;5037009;28;20502;-76
2021/05/13 04:07:04;;;;;;;10.05;4.57;;;9.50;99.90;;;;;;5029543;28;20479;-77
2021/05/13 04:09:30;;;;;;;10.52;5.28;;;9.40;99.90;;;;;;5032371;28;20032;-76
2021/05/13 04:11:56;;;;;;;10.00;5.22;;;9.50;99.90;;;;;;5033026;28;20304;-76
2021/05/13 04:14:24;;;;;;;12.05;5.43;;;10.50;99.90;;;;;;5054657;28;20025;-74
2021/05/13 04:16:53;;;;;;;8.65;4.80;;;9.30;99.90;;;;;;5047902;28;20032;-76
2021/05/13 04:19:19;;;;;;;11.68;4.63;;;9.30;99.90;;;;;;5031485;28;20060;-77
2021/05/13 04:21:46;;;;;;;9.85;4.55;;;9.30;99.90;;;;;;5030093;28;20021;-77
2021/05/13 04:24:13;;;;;;;9.82;3.88;;;9.30;99.90;;;;;;5049069;28;20032;-74
2021/05/13 04:26:40;;;;;;;10.55;3.42;;;9.40;99.90;;;;;;5024093;28;20111;-76
2021/05/13 04:29:09;;;;;;;11.50;4.40;;;9.40;99.90;;;;;;5052834;28;20029;-76
2021/05/13 04:31:35;;;;;;;6.80;3.60;;;9.30;99.90;;;;;;5032361;28;20057;-75
2021/05/13 04:34:01;;;;;;;7.22;3.83;;;9.30;99.90;;;;;;5051173;28;20025;-77
2021/05/13 04:36:27;;;;;;;10.52;4.20;;;9.30;99.90;;;;;;5026575;28;20395;-77
2021/05/13 04:38:52;;;;;;;8.77;3.63;;;9.30;99.90;;;;;;5043032;28;20025;-76
2021/05/13 04:41:18;;;;;;;10.98;4.68;;;;;;;;;;5046133;28;20230;-77
2021/05/13 04:43:44;;;;;;;8.00;4.10;;;;;;;;;;5034616;28;20029;-77
2021/05/13 04:46:10;;;;;;;7.85;4.13;;;9.30;99.90;;;;;;5044505;28;20059;-77
2021/05/13 04:51:18;;;;;;;11.45;4.22;;;9.30;99.90;;;;;;5048712;28;20025;-75
2021/05/13 04:53:47;;;;;;;8.48;4.05;;;9.30;99.90;;;;;;5053218;28;20077;-75
2021/05/13 04:56:12;;;;;;;9.82;4.15;;;9.40;99.90;;;;;;5049659;28;20044;-75
2021/05/13 04:58:38;;;;;;;12.30;5.30;;;9.40;99.90;;;;;;5037084;28;20021;-76
2021/05/13 05:01:04;;;;;;;9.18;3.92;;;9.40;99.90;;;;;;5047754;28;20037;-76
2021/05/13 05:03:29;;;;;;;9.52;4.00;;;9.40;99.90;;;;;;5046222;28;20384;-76
2021/05/13 05:05:55;;;;;;;9.35;4.53;;;9.50;99.90;;;;;;5029579;28;20072;-75
2021/05/13 05:08:20;;;;;;;9.15;4.35;;;9.60;99.90;;;;;;5048510;28;20025;-76
2021/05/13 05:10:46;;;;;;;12.15;5.03;;;9.50;99.90;;;;;;5060734;28;20032;-77
2021/05/13 05:13:11;;;;;;;11.38;5.05;;;9.70;99.90;;;;;;5031196;28;20040;-75
2021/05/13 05:15:37;;;;;;;10.95;5.18;;;9.70;99.90;;;;;;5048937;28;20529;-77
2021/05/13 05:18:03;;;;;;;12.45;4.88;;;9.70;99.90;;;;;;5034627;28;20029;-75
2021/05/13 05:20:28;;;;;;;6.93;4.47;;;9.70;99.90;;;;;;5046435;28;20129;-75
2021/05/13 05:22:54;;;;;;;11.20;4.97;;;9.80;99.90;;;;;;5043729;28;20026;-75
2021/05/13 05:25:20;;;;;;;8.75;4.55;;;9.80;99.90;;;;;;5045961;28;20422;-76
2021/05/13 05:27:45;;;;;;;9.70;4.70;;;9.90;99.90;;;;;;5051197;28;20033;-77
2021/05/13 05:30:11;;;;;;;8.68;4.22;;;10.00;99.90;;;;;;5044724;28;20032;-77
2021/05/13 05:32:37;;;;;;;9.13;4.35;;;10.30;99.90;;;;;;5044370;28;20032;-77
2021/05/13 05:35:04;;;;;;;9.30;4.65;;;10.90;99.90;;;;;;5048707;28;20092;-76
2021/05/13 05:37:31;;;;;;;11.07;4.75;;;11.00;99.90;;;;;;5041884;28;20037;-76
2021/05/13 05:39:57;;;;;;;9.15;4.82;;;11.40;99.90;;;;;;5045808;28;20041;-76
2021/05/13 05:42:22;;;;;;;8.68;5.13;;;11.30;99.90;;;;;;5044334;28;20621;-76
2021/05/13 05:44:48;;;;;;;10.90;5.30;;;11.20;99.90;;;;;;5045088;28;20036;-78
2021/05/13 05:47:16;;;;;;;8.63;4.43;;;11.50;99.90;;;;;;5045099;28;20551;-76
2021/05/13 05:49:44;;;;;;;8.45;4.72;;;12.30;99.90;;;;;;5047529;28;20029;-76
2021/05/13 05:52:11;;;;;;;11.63;4.32;;;12.50;99.90;;;;;;5043471;28;20399;-76
2021/05/13 05:54:36;;;;;;;9.52;4.05;;;13.10;99.90;;;;;;5052086;28;20109;-77
2021/05/13 05:57:02;;;;;;;7.60;4.00;;;13.20;99.40;;;;;;5027674;28;20474;-77
2021/05/13 05:59:30;;;;;;;7.70;3.78;;;13.50;98.70;;;;;;5046321;28;20035;-77
2021/05/13 06:01:55;;;;;;;9.95;4.38;;;13.50;98.70;;;;;;5044306;28;20052;-78
2021/05/13 06:04:21;;;;;;;7.57;4.07;;;13.20;99.60;;;;;;5035432;28;20055;-76
2021/05/13 06:06:47;;;;;;;7.82;3.80;;;13.30;99.20;;;;;;5044463;28;20040;-77
2021/05/13 06:09:12;;;;;;;7.95;3.65;;;13.00;99.90;;;;;;5029240;28;20063;-76
2021/05/13 06:11:38;;;;;;;9.55;4.55;;;12.90;99.90;;;;;;5045367;28;20102;-76
2021/05/13 06:14:04;;;;;;;8.68;3.95;;;12.70;99.90;;;;;;5051743;28;20032;-77
2021/05/13 06:16:29;;;;;;;9.70;3.83;;;12.80;99.90;;;;;;5041365;28;20029;-76
2021/05/13 06:18:56;;;;;;;7.75;3.65;;;12.90;99.90;;;;;;5031320;28;20036;-77
2021/05/13 06:21:22;;;;;;;8.77;4.00;;;12.90;99.90;;;;;;5028397;28;20029;-77
2021/05/13 06:23:54;;;;;;;7.82;3.88;;;12.70;99.90;;;;;;5027542;28;20034;-76
2021/05/13 06:26:28;;;;;;;10.65;4.18;;;12.90;99.90;;;;;;5043065;28;20711;-76
2021/05/13 06:28:54;;;;;;;9.15;3.70;;;12.90;99.90;;;;;;5035403;28;20028;-77
2021/05/13 06:31:19;;;;;;;5.15;3.50;;;12.90;99.90;;;;;;5018504;28;20025;-76
2021/05/13 06:33:45;;;;;;;6.35;3.35;;;13.00;99.90;;;;;;5042613;28;20056;-76
2021/05/13 06:36:11;;;;;;;8.00;3.83;;;13.20;99.90;;;;;;5040262;28;20032;-75
2021/05/13 06:38:37;;;;;;;8.25;3.60;;;13.40;99.60;;;;;;5018881;28;20032;-76
2021/05/13 06:41:05;;;;;;;7.55;3.22;;;13.40;99.90;;;;;;5036909;28;20067;-78
2021/05/13 06:43:32;;;;;;;6.78;2.85;;;13.50;99.70;;;;;;5048824;28;20055;-76
2021/05/13 06:45:57;;;;;;;8.68;3.70;;;13.40;99.70;;;;;;5031538;28;20124;-76
2021/05/13 06:48:23;;;;;;;6.22;2.20;;;13.50;99.70;;;;;;5032126;28;20139;-76
2021/05/13 06:50:48;;;;;;;3.80;2.25;;;13.70;99.30;;;;;;5044839;28;20487;-75
2021/05/13 06:53:14;;;;;;;5.45;2.47;;;13.80;99.20;;;;;;5035535;28;20037;-75
2021/05/13 06:55:39;;;;;;;4.47;2.30;;;13.70;99.40;;;;;;5023803;28;20214;-78
2021/05/13 06:58:05;;;;;;;7.22;2.10;;;13.70;99.40;;;;;;5023701;28;20585;-76
2021/05/13 07:00:31;;;;;;;5.63;2.00;;;13.90;98.80;;;;;;5018735;28;20032;-75
2021/05/13 07:02:56;;;;;;;5.05;2.10;;;14.00;99.10;;;;;;5022506;28;21648;-77
2021/05/13 07:05:22;;;;;;;4.88;1.70;;;14.30;98.60;;;;;;5023990;28;20025;-76
2021/05/13 07:07:48;;;;;;;6.53;1.80;;;14.20;98.80;;;;;;5020393;28;20032;-74
2021/05/13 07:10:13;;;;;;;6.15;1.90;;;14.10;98.60;;;;;;5045225;28;20033;-76
2021/05/13 07:12:39;;;;;;;5.20;1.75;;;14.00;99.10;;;;;;5040385;28;20041;-76
2021/05/13 07:15:06;;;;;;;3.00;1.88;;;14.10;99.20;;;;;;5018667;28;20056;-78
2021/05/13 07:17:32;;;;;;;5.70;1.88;;;14.20;99.30;;;;;;5044034;28;20032;-75
2021/05/13 07:19:57;;;;;;;3.75;1.85;;;14.20;99.10;;;;;;5021166;28;20051;-76
2021/05/13 07:22:23;;;;;;;5.85;2.03;;;17.30;99.60;;;;;;5037181;28;20088;-75
2021/05/13 07:24:48;;;;;;;5.10;1.70;;;14.40;98.70;;;;;;5031958;28;20372;-77
2021/05/13 07:27:15;;;;;;;4.53;1.90;;;14.40;98.90;;;;;;5043344;28;20112;-77
2021/05/13 07:29:41;;;;;;;6.32;2.28;;;14.60;98.70;;;;;;5021738;28;20103;-78
2021/05/13 07:32:09;;;;;;;4.07;1.80;;;14.60;98.50;;;;;;5041066;28;20418;-78
2021/05/13 07:34:34;;;;;;;6.95;2.10;;;14.70;98.90;;;;;;5045096;28;20057;-77
2021/05/13 07:37:02;;;;;;;4.85;1.88;;;14.80;98.00;;;;;;5023619;28;20055;-76
2021/05/13 07:39:27;;;;;;;4.90;2.05;;;15.10;97.90;;;;;;5030085;28;20075;-76
2021/05/13 07:41:53;;;;;;;5.13;1.83;;;16.50;97.00;;;;;;5046484;28;20021;-76
2021/05/13 07:44:19;;;;;;;4.07;1.83;;;15.00;97.00;;;;;;5030297;28;20037;-76
2021/05/13 07:46:44;;;;;;;4.78;1.75;;;15.20;96.40;;;;;;5048413;28;20033;-75
2021/05/13 07:49:10;;;;;;;7.35;2.10;;;15.30;96.20;;;;;;5033030;28;20029;-77
2021/05/13 07:51:36;;;;;;;3.30;1.80;;;15.60;96.00;;;;;;5041179;28;20013;-75
2021/05/13 07:54:03;;;;;;;4.35;1.67;;;15.80;95.70;;;;;;5047647;28;20032;-77
2021/05/13 07:56:28;;;;;;;9.75;1.67;;;15.90;95.20;;;;;;5062830;28;20059;-79
2021/05/13 07:58:54;;;;;;;4.85;2.08;;;16.10;94.50;;;;;;5047138;28;20033;-77
2021/05/13 08:01:19;;;;;;;6.03;1.73;;;16.10;94.40;;;;;;5046269;28;20025;-78
2021/05/13 08:03:45;;;;;;;5.28;1.90;;;16.30;94.00;;;;;;5060050;28;20025;-77
2021/05/13 08:06:11;;;;;;;6.93;2.25;;;16.40;93.90;;;;;;5044334;28;20075;-75
2021/05/13 08:08:37;;;;;;;6.13;2.20;;;16.20;94.00;;;;;;5048955;28;20029;-77
2021/05/13 08:11:03;;;;;;;4.68;1.73;;;16.50;93.60;;;;;;5052086;28;20081;-75
2021/05/13 08:13:30;;;;;;;5.50;1.65;;;16.80;93.00;;;;;;5049013;28;20442;-76
2021/05/13 08:15:56;;;;;;;4.80;1.63;;;16.80;93.10;;;;;;5045905;28;20061;-76
2021/05/13 08:18:22;;;;;;;3.05;1.50;;;17.00;92.00;;;;;;5048768;28;20025;-75
2021/05/13 08:20:47;;;;;;;5.88;1.83;;;17.00;91.30;;;;;;5029479;28;20045;-76
2021/05/13 08:23:13;;;;;;;3.75;1.63;;;16.90;91.50;;;;;;5037396;28;20051;-75
2021/05/13 08:25:39;;;;;;;6.18;1.70;;;16.80;91.70;;;;;;5028184;28;20075;-76
2021/05/13 08:28:04;;;;;;;4.93;1.80;;;16.80;91.90;;;;;;5045337;28;20479;-77
2021/05/13 08:30:30;;;;;;;7.38;1.90;;;16.90;91.80;;;;;;5032351;28;20075;-77
2021/05/13 08:32:56;;;;;;;4.15;1.70;;;16.80;91.90;;;;;;5045478;28;20495;-75
2021/05/13 08:35:21;;;;;;;6.22;1.63;;;16.90;91.70;;;;;;5045656;28;20055;-77
2021/05/13 08:37:47;;;;;;;5.32;1.60;;;16.90;91.80;;;;;;5045835;28;20040;-75
2021/05/13 08:40:12;;;;;;;3.78;1.70;;;17.00;91.80;;;;;;5045570;28;20034;-77
2021/05/13 08:42:39;;;;;;;6.50;1.98;;;17.00;91.30;;;;;;5029381;28;20389;-78
2021/05/13 08:45:05;;;;;;;4.75;1.83;;;18.30;91.50;;;;;;5045490;28;20032;-75
2021/05/13 08:47:32;;;;;;;6.22;1.80;;;16.90;90.90;;;;;;5048733;28;20430;-77
2021/05/13 08:50:01;;;;;;;3.97;1.67;;;16.80;91.10;;;;;;5050070;28;20044;-76
2021/05/13 08:52:27;;;;;;;4.00;1.70;;;16.70;91.40;;;;;;5038440;28;20033;-76
2021/05/13 08:54:54;;;;;;;5.82;1.95;;;16.70;91.50;;;;;;5016993;28;20315;-76
2021/05/13 08:57:20;;;;;;;5.75;1.95;;;16.70;92.00;;;;;;5030303;28;20048;-77
2021/05/13 08:59:47;;;;;;;5.90;2.20;;;16.60;92.10;;;;;;5040635;28;20041;-75
2021/05/13 09:02:14;;;;;;;4.28;1.90;;;16.60;92.50;;;;;;5022643;28;20048;-76
2021/05/13 09:04:42;;;;;;;6.07;2.10;;;16.40;92.90;;;;;;5019084;28;20032;-75
2021/05/13 09:07:15;;;;;;;4.40;2.15;;;16.30;93.00;;;;;;5037483;28;20845;-76
2021/05/13 09:10:01;;;;;;;4.53;1.98;;;16.40;93.00;;;;;;5020174;28;20116;-76
2021/05/13 09:12:30;;;;;;;7.95;3.13;;;16.40;92.90;;;;;;5028537;28;20111;-81
2021/05/13 09:15:20;;;;;;;4.65;1.90;;;16.50;92.90;;;;;;5024881;28;20101;-81
2021/05/13 09:17:50;;;;;;;3.25;2.10;;;16.30;92.90;;;;;;5028044;28;20031;-81
2021/05/13 09:20:32;;;;;;;4.33;1.93;;;16.50;92.60;;;;;;5025954;28;20052;-84
2021/05/13 09:23:10;;;;;;;5.38;1.92;;;16.70;92.60;;;;;;5044174;28;20280;-78
2021/05/13 09:25:35;;;;;;;4.72;1.80;;;16.70;92.60;;;;;;5027795;28;20035;-81
2021/05/13 09:28:01;;;;;;;5.22;2.00;;;16.60;92.50;;;;;;5045775;28;20025;-82
2021/05/13 09:30:29;;;;;;;4.00;1.98;;;16.90;92.00;;;;;;5047215;28;20063;-80
2021/05/13 09:32:58;;;;;;;6.70;2.45;;;16.80;92.20;;;;;;5045174;28;20032;-79
2021/05/13 09:35:31;;;;;;;5.38;1.90;;;17.10;92.60;;;;;;5035385;28;20649;-83
2021/05/13 09:38:02;;;;;;;4.72;2.08;;;17.10;92.60;;;;;;5038322;28;20060;-84
2021/05/13 09:40:41;;;;;;;4.90;2.00;;;17.30;91.50;;;;;;5038296;28;20017;-83
2021/05/13 09:43:19;;;;;;;10.55;2.33;;;17.60;91.50;;;;;;5035567;28;20063;-82
2021/05/13 09:45:56;;;;;;;4.88;2.10;;;17.30;91.40;;;;;;5028243;28;20083;-83
2021/05/13 09:48:44;;;;;;;3.85;1.80;;;17.20;91.60;;;;;;5048886;28;20033;-81
2021/05/13 09:51:26;;;;;;;4.80;2.03;;;17.20;91.60;;;;;;5052729;28;20029;-83
2021/05/13 09:54:15;;;;;;;7.25;3.75;;;17.10;91.60;;;;;;5034357;28;20033;-80
2021/05/13 09:56:43;;;;;;;4.07;1.95;;;17.00;92.20;;;;;;5014533;28;20033;-82
2021/05/13 09:59:27;;;;;;;7.20;2.92;;;16.90;92.30;;;;;;5038327;28;20028;-82
2021/05/13 10:01:58;;;;;;;5.47;2.50;;;16.80;92.40;;;;;;5030666;28;20387;-83
2021/05/13 10:04:26;;;;;;;5.32;2.45;;;16.70;92.90;;;;;;5048380;28;20021;-83
2021/05/13 10:06:52;;;;;;;4.80;2.40;;;16.70;92.90;;;;;;5035563;28;20029;-82
2021/05/13 10:09:20;;;;;;;4.13;2.47;;;16.80;92.80;;;;;;5036094;28;20024;-84
2021/05/13 10:11:53;;;;;;;6.28;2.60;;;16.70;93.00;;;;;;5034665;28;20033;-82
2021/05/13 10:14:20;;;;;;;6.63;2.80;;;16.60;93.10;;;;;;5051960;28;20372;-81
2021/05/13 10:16:48;;;;;;;5.90;2.40;;;16.60;93.30;;;;;;5050673;28;20069;-83
2021/05/13 10:19:39;;;;;;;5.53;2.50;;;16.40;93.80;;;;;;5028828;28;20123;-79
2021/05/13 10:22:07;;;;;;;6.20;2.47;;;16.40;93.90;;;;;;5031867;28;20056;-78
2021/05/13 10:24:32;;;;;;;5.50;2.50;;;16.60;93.90;;;;;;5051664;28;20174;-81
2021/05/13 10:26:58;;;;;;;5.53;2.20;;;16.70;93.30;;;;;;5031489;28;20135;-83
2021/05/13 10:29:24;;;;;;;5.07;2.75;;;17.00;92.00;;;;;;5035110;28;20029;-80
2021/05/13 10:32:16;;;;;;;4.50;1.83;;;17.00;92.00;;;;;;5049407;28;20041;-81
2021/05/13 10:34:41;;;;;;;6.90;2.05;;;17.10;91.80;;;;;;5046194;28;20113;-80
2021/05/13 10:37:25;;;;;;;3.75;1.33;;;17.00;92.10;;;;;;5025630;28;20547;-82
2021/05/13 10:40:14;;;;;;;3.85;1.80;;;17.30;91.50;;;;;;5044839;28;20055;-80
2021/05/13 10:42:41;;;;;;;3.47;1.40;;;17.60;90.40;;;;;;5044296;28;20029;-81
2021/05/13 10:45:25;;;;;;;4.60;2.03;;;17.50;90.30;;;;;;5027521;28;20037;-79
2021/05/13 10:48:40;;;;;;;3.33;1.40;;;17.40;89.90;;;;;;5049988;28;20025;-81
2021/05/13 10:51:08;;;;;;;2.65;1.42;;;17.40;90.20;;;;;;5047190;28;20068;-82
2021/05/13 10:53:34;;;;;;;4.47;1.48;;;17.40;89.20;;;;;;5032284;28;20052;-81
2021/05/13 10:56:17;;;;;;;6.03;1.75;;;17.50;89.70;;;;;;5043133;28;20056;-81
2021/05/13 10:59:01;;;;;;;4.35;1.60;;;17.30;90.30;;;;;;5051030;28;20021;-80
2021/05/13 11:01:48;;;;;;;3.53;1.58;;;17.20;90.30;;;;;;5048674;28;20080;-81
2021/05/13 11:04:22;;;;;;;4.80;1.50;;;17.30;89.70;;;;;;5044221;28;20033;-77
2021/05/13 11:07:00;;;;;;;4.70;1.88;;;17.40;89.50;;;;;;5044288;28;20021;-79
2021/05/13 11:09:38;;;;;;;2.88;1.45;;;;;;;;;;5027666;28;20036;-81
2021/05/13 11:12:11;;;;;;;4.68;1.60;;;;;;;;;;5044905;28;20028;-83
2021/05/13 11:14:57;;;;;;;3.45;1.90;;;16.60;90.40;;;;;;5035626;28;20030;-84
2021/05/13 11:20:30;;;;;;;3.85;1.90;;;16.50;92.50;;;;;;5053946;28;20486;-84
2021/05/13 11:22:56;;;;;;;4.32;1.83;;;;;;;;;;5042016;28;20278;-84
2021/05/13 11:25:23;;;;;;;3.13;1.40;;;16.10;95.10;;;;;;5055937;28;20026;-83
2021/05/13 11:27:49;;;;;;;3.38;1.30;;;;;;;;;;5038945;28;20052;-84
2021/05/13 11:30:15;;;;;;;3.08;1.50;;;;;;;;;;5054838;28;20028;-84
2021/05/13 11:32:41;;;;;;;4.65;1.60;;;14.70;99.90;;;;;;5037838;28;20036;-83
2021/05/13 11:35:08;;;;;;;2.85;1.50;;;14.30;99.90;;;;;;5034779;28;20033;-84
2021/05/13 11:37:41;;;;;;;5.78;1.95;;;14.00;99.90;;;;;;5029181;28;20032;-82
2021/05/13 11:40:37;;;;;;;4.72;1.77;;;13.60;99.90;;;;;;5048014;28;20494;-81
2021/05/13 11:43:25;;;;;;;4.50;1.85;;;13.50;99.90;;;;;;5027573;28;20036;-82
2021/05/13 11:45:56;;;;;;;4.50;2.40;;;13.50;99.90;;;;;;5048506;28;20438;-83
2021/05/13 11:48:32;;;;;;;2.90;1.20;;;13.40;99.90;;;;;;5038135;28;20029;-85
2021/05/13 11:51:04;;;;;;;2.67;1.30;;;13.60;99.90;;;;;;5039683;28;20037;-82
2021/05/13 11:53:30;;;;;;;2.25;1.17;;;13.80;99.90;;;;;;5043895;28;20097;-79
2021/05/13 11:55:56;;;;;;;6.35;3.60;;;10.60;99.90;;;;;;5049396;28;20305;-82
2021/05/13 11:58:44;;;;;;;2.15;1.20;;;15.40;99.90;;;;;;5045944;28;20033;-85
2021/05/13 12:01:22;;;;;;;2.83;1.00;;;14.20;99.90;;;;;;5028216;28;20120;-77
2021/05/13 12:04:09;;;;;;;1.70;0.75;;;14.10;99.90;;;;;;5039585;28;20399;-81
2021/05/13 12:06:50;;;;;;;1.52;0.98;;;13.00;99.90;;;;;;5034870;28;20041;-79
2021/05/13 12:09:19;;;;;;;2.28;1.00;;;14.40;99.90;;;;;;5037329;28;20136;-84
2021/05/13 12:11:45;;;;;;;2.22;1.42;;;14.50;99.90;;;;;;5044103;28;20042;-81
2021/05/13 12:14:16;;;;;;;1.88;0.70;;;13.90;99.90;;;;;;5044559;28;20515;-77
2021/05/13 12:16:42;;;;;;;7.15;4.05;;;14.00;99.90;;;;;;5045754;28;20115;-79
2021/05/13 12:19:13;;;;;;;2.65;1.00;;;13.80;99.90;;;;;;5047562;28;20025;-79
2021/05/13 12:21:40;;;;;;;5.72;0.80;;;15.80;99.90;;;;;;5032211;28;20032;-80
2021/05/13 12:24:07;;;;;;;2.13;0.80;;;13.80;99.90;;;;;;5045270;28;20033;-81
2021/05/13 12:26:35;;;;;;;1.38;0.90;;;13.80;99.90;;;;;;5046478;28;20482;-80
2021/05/13 12:29:03;;;;;;;0.95;0.90;;;13.90;99.90;;;;;;5045813;28;20025;-83
2021/05/13 12:31:34;;;;;;;1.27;0.80;;;13.80;99.90;;;;;;5027326;28;20029;-82
2021/05/13 12:34:03;;;;;;;;;;;13.80;99.90;;;;;;5026990;28;20029;-78
2021/05/13 12:36:29;;;;;;;1.48;0.90;;;;;;;;;;5025554;28;19909;-78
2021/05/13 12:38:55;;;;;;;1.90;1.30;;;13.80;99.90;;;;;;5019555;28;20054;-79
2021/05/13 12:41:25;;;;;;;1.35;0.90;;;14.00;99.90;;;;;;5025747;28;20018;-79
2021/05/13 12:44:03;;;;;;;;;;;15.30;99.90;;;;;;5030301;28;20031;-82
2021/05/13 12:46:31;;;;;;;1.95;0.93;;;14.10;99.90;;;;;;5046837;28;20318;-79
2021/05/13 12:48:57;;;;;;;1.15;0.70;;;14.20;99.90;;;;;;5031047;28;20078;-79
2021/05/13 12:51:25;;;;;;;1.30;0.80;;;14.50;99.90;;;;;;5029041;28;20426;-84
2021/05/13 12:53:53;;;;;;;1.90;0.95;;;14.60;99.90;;;;;;5043215;28;20032;-80
2021/05/13 12:56:31;;;;;;;1.58;0.90;;;15.90;99.90;;;;;;5026427;28;20483;-78
2021/05/13 12:59:09;;;;;;;1.88;1.02;;;14.40;99.90;;;;;;5048561;28;20025;-83
2021/05/13 13:01:54;;;;;;;2.17;1.10;;;14.50;99.90;;;;;;5040127;28;20040;-79
2021/05/13 13:04:20;;;;;;;1.40;0.80;;;14.60;99.90;;;;;;5024918;28;20020;-82
2021/05/13 13:06:51;;;;;;;1.63;1.00;;;14.80;99.90;;;;;;5023679;28;20215;-81
2021/05/13 13:09:37;;;;;;;1.90;1.25;;;14.90;99.90;;;;;;5024256;28;20025;-79
2021/05/13 13:12:16;;;;;;;1.60;0.80;;;14.80;99.90;;;;;;5025133;28;20071;-80
2021/05/13 13:17:22;;;;;;;1.30;0.90;;;14.90;99.90;;;;;;5045305;28;20028;-80
2021/05/13 13:20:09;;;;;;;1.17;0.90;;;15.00;99.90;;;;;;5044818;28;20033;-82